Flight Track Log - Related Links

Times and Time Zones

All times are in EDT time to prevent confusion due to time zone crossing. See the N89ST flight status page for this flight to view local times or setup timezone preferences in your user account.

Time Position Orientation Groundspeed Altitude Reporting Facility
EDT Latitude Longitude Course Direction KTS MPH feet Rate Location/Type
Thu 05:28:00 PM 48.2087 -100.7416 98° East  Level Estimated
Thu 05:29:00 PM 48.2003 -100.6523 98° East  Level Estimated
Thu 05:29:54 PM 48.2197 -100.8400 98° East 161 185 10,700  Level Minneapolis Center
Thu 05:30:00 PM 48.1919 -100.5630 98° East  Level Estimated
Thu 05:30:54 PM 48.2064 -100.7586 104° East 192 221 11,800  Level Minneapolis Center
Thu 05:31:00 PM 48.1833 -100.4737 98° East  Level Estimated
Thu 05:31:58 PM 48.2008 -100.6844 96° East 183 211 12,900  Level Minneapolis Center
Thu 05:32:00 PM 48.1748 -100.3845 98° East  Level Estimated
Thu 05:32:59 PM 48.1933 -100.6244 101° East 182 209 13,700  Level Minneapolis Center
Thu 05:33:00 PM 48.1661 -100.2953 98° East  Level Estimated
Thu 05:34:00 PM 48.1573 -100.2062 98° East  Level Estimated
Thu 05:34:03 PM 48.1856 -100.5325 97° East 185 213 15,000  Level Minneapolis Center
Thu 05:35:00 PM 48.1485 -100.1171 98° East  Level Estimated
Thu 05:35:03 PM 48.1808 -100.4717 97° East 185 213 15,700  Level Minneapolis Center
Thu 05:36:04 PM 48.1703 -100.3783 100° East 189 217 16,900 1,056 Climbing Minneapolis Center
Thu 05:37:08 PM 48.1603 -100.2839 99° East 190 219 17,900 898 Climbing Minneapolis Center
Thu 05:38:11 PM 48.1544 -100.2039 96° East 193 222 18,800 829 Climbing Minneapolis Center
Thu 05:39:11 PM 48.1486 -100.1200 96° East 199 229 19,600 823 Climbing Minneapolis Center
Thu 05:40:15 PM 48.1372 -100.0356 101° East 205 236 20,500 816 Climbing Minneapolis Center
Thu 05:41:16 PM 48.1286 -99.9511 99° East 206 237 21,300 787 Climbing Minneapolis Center
Thu 05:42:17 PM 48.1197 -99.8653 99° East 208 239 22,100 726 Climbing Minneapolis Center
Thu 05:43:20 PM 48.1089 -99.7586 99° East 215 247 22,800 429 Climbing Minneapolis Center
Thu 05:44:23 PM 48.0989 -99.6639 99° East 226 260 23,000 97 Climbing Minneapolis Center
Thu 05:45:24 PM 48.0889 -99.5617 98° East 242 278 23,000  Level Minneapolis Center
Thu 05:46:25 PM 48.0808 -99.4522 96° East 257 296 23,000  Level Minneapolis Center
Thu 05:47:29 PM 48.0694 -99.3436 99° East 263 303 23,000  Level Minneapolis Center
Thu 05:48:30 PM 48.0564 -99.2369 100° East 263 303 23,000  Level Minneapolis Center
Thu 05:49:34 PM 48.0431 -99.1067 99° East 264 304 23,000  Level Minneapolis Center
Thu 05:50:35 PM 48.0317 -98.9994 99° East 263 303 23,000  Level Minneapolis Center
Thu 05:51:38 PM 48.0194 -98.8928 100° East 261 300 23,000  Level Minneapolis Center
Thu 05:52:38 PM 48.0081 -98.7853 99° East 261 300 23,000  Level Minneapolis Center
Thu 05:53:42 PM 47.9964 -98.6811 99° East 258 297 23,000  Level Minneapolis Center
Thu 05:54:42 PM 47.9836 -98.5772 100° East 257 296 23,000  Level Minneapolis Center
Thu 05:55:46 PM 47.9694 -98.4511 99° East 256 295 23,000  Level Minneapolis Center
Thu 05:56:46 PM 47.9578 -98.3469 99° East 256 295 23,000  Level Minneapolis Center
Thu 05:57:50 PM 47.9450 -98.2411 100° East 258 297 23,000  Level Minneapolis Center
Thu 05:58:53 PM 47.9333 -98.1386 100° East 254 292 23,000  Level Minneapolis Center
Thu 05:59:53 PM 47.9214 -98.0342 100° East 254 292 23,000  Level Minneapolis Center
Thu 06:01:09 PM 47.9078 -97.9289 101° East 256 295 23,000  Level Minneapolis Center
Thu 06:02:09 PM 47.8903 -97.7825 100° East 256 295 23,000  Level Minneapolis Center
Thu 06:03:13 PM 47.8778 -97.6778 100° East 256 295 23,000  Level Minneapolis Center
Thu 06:04:13 PM 47.8650 -97.5739 100° East 255 293 23,000  Level Minneapolis Center
Thu 06:05:17 PM 47.8528 -97.4708 100° East 254 292 23,000  Level Minneapolis Center
Thu 06:06:18 PM 47.8403 -97.3667 100° East 254 292 23,000  Level Minneapolis Center
Thu 06:07:21 PM 47.8272 -97.2636 101° East 254 292 23,000  Level Minneapolis Center
Thu 06:08:22 PM 47.8147 -97.1603 100° East 254 292 23,000  Level Minneapolis Center
Thu 06:09:25 PM 47.7989 -97.0378 101° East 253 291 23,000  Level Minneapolis Center
Thu 06:10:29 PM 47.7858 -96.9361 101° East 252 290 23,000  Level Minneapolis Center
Thu 06:12:31 PM 47.7597 -96.7319 101° East 252 290 23,000  Level Minneapolis Center
Thu 06:13:34 PM 47.7458 -96.6306 101° East 251 289 23,000  Level Minneapolis Center
Thu 06:14:35 PM 47.7328 -96.5275 101° East 253 291 23,000 -88 Level Minneapolis Center
Thu 06:15:50 PM 47.7167 -96.4056 101° East 253 291 22,800 -706 Descending Minneapolis Center
Thu 06:16:51 PM 47.6994 -96.2806 102° East 257 296 21,400 -1,258 Descending Minneapolis Center
Thu 06:17:54 PM 47.6861 -96.1781 101° East 254 292 20,200 -1,134 Descending Minneapolis Center
Thu 06:18:58 PM 47.6733 -96.0789 101° East 249 287 19,000 -1,016 Descending Minneapolis Center
Thu 06:19:58 PM 47.6619 -96.0008 102° East 246 283 18,100 -1,317 Descending Minneapolis Center
Thu 06:21:01 PM 47.6433 -95.8669 102° East 239 275 16,300 -1,548 Descending Minneapolis Center
Thu 06:22:02 PM 47.6300 -95.7733 102° East 235 270 14,900 -1,355 Descending Minneapolis Center
Thu 06:23:05 PM 47.6181 -95.6817 101° East 230 265 13,500 -1,355 Descending Minneapolis Center
Thu 06:24:06 PM 47.6050 -95.5931 102° East 224 258 12,100 -1,355 Descending Minneapolis Center
Thu 06:25:09 PM 47.5908 -95.5047 103° East 221 254 10,700 -1,452 Descending Minneapolis Center
Thu 06:26:10 PM 47.5792 -95.4044 100° East 214 246 9,100 -1,488 Descending Minneapolis Center
Thu 06:27:14 PM 47.5650 -95.3208 104° East 211 243 7,600 -1,406 Descending Minneapolis Center

Login

Don't have an account? Register now (free) for customized features, flight alerts, and more!